createdAt,value
2017-11-05T00:00:49.734Z,19.37
2017-11-05T00:03:17.378Z,19.50
2017-11-05T00:05:45.074Z,19.40
2017-11-05T00:08:12.713Z,18.07
2017-11-05T00:10:40.396Z,19.50
2017-11-05T00:13:08.045Z,18.50
2017-11-05T00:15:35.734Z,19.60
2017-11-05T00:18:03.388Z,19.27
2017-11-05T00:20:31.095Z,19.03
2017-11-05T00:22:58.758Z,19.63
2017-11-05T00:25:26.394Z,18.70
2017-11-05T00:27:54.062Z,19.80
2017-11-05T00:30:21.714Z,18.57
2017-11-05T00:32:49.401Z,19.33
2017-11-05T00:35:17.111Z,18.63
2017-11-05T00:37:44.816Z,19.77
2017-11-05T00:40:12.463Z,18.87
2017-11-05T00:42:40.092Z,19.53
2017-11-05T00:45:07.730Z,19.37
2017-11-05T00:47:35.426Z,18.30
2017-11-05T00:50:03.986Z,18.63
2017-11-05T00:52:31.675Z,19.13
2017-11-05T00:54:59.335Z,19.50
2017-11-05T00:57:27.024Z,18.90
2017-11-05T00:59:54.680Z,19.10
2017-11-05T01:02:22.359Z,18.00
2017-11-05T01:04:50.012Z,18.00
2017-11-05T01:07:17.715Z,18.97
2017-11-05T01:09:45.379Z,18.23
2017-11-05T01:12:13.057Z,18.53
2017-11-05T01:14:40.703Z,18.60
2017-11-05T01:17:08.378Z,18.00
2017-11-05T01:19:36.070Z,20.33
2017-11-05T01:22:03.731Z,18.50
2017-11-05T01:24:31.419Z,18.13
2017-11-05T01:26:59.067Z,19.23
2017-11-05T01:29:26.708Z,19.83
2017-11-05T01:31:54.376Z,19.50
2017-11-05T01:34:22.067Z,17.33
2017-11-05T01:36:49.750Z,17.83
2017-11-05T01:39:17.451Z,18.63
2017-11-05T01:41:45.098Z,17.30
2017-11-05T01:44:12.779Z,18.27
2017-11-05T01:46:40.437Z,16.93
2017-11-05T01:49:08.113Z,18.70
2017-11-05T01:51:35.778Z,17.30
2017-11-05T01:54:03.462Z,18.20
2017-11-05T01:56:31.119Z,18.50
2017-11-05T01:58:58.761Z,18.63
2017-11-05T02:01:26.364Z,18.77
2017-11-05T02:03:54.040Z,19.63
2017-11-05T02:06:21.678Z,18.40
2017-11-05T02:08:49.370Z,19.30
2017-11-05T02:11:17.009Z,19.63
2017-11-05T02:13:44.712Z,17.10
2017-11-05T02:16:12.369Z,19.33
2017-11-05T02:18:40.028Z,18.47
2017-11-05T02:21:07.713Z,18.27
2017-11-05T02:23:35.355Z,19.43
2017-11-05T02:26:03.034Z,19.13
2017-11-05T02:28:30.707Z,17.90
2017-11-05T02:30:58.417Z,18.10
2017-11-05T02:33:26.059Z,19.40
2017-11-05T02:35:53.781Z,19.30
2017-11-05T02:38:21.429Z,19.47
2017-11-05T02:40:49.120Z,18.60
2017-11-05T02:43:16.779Z,18.80
2017-11-05T02:45:44.473Z,19.87
2017-11-05T02:48:12.117Z,20.30
2017-11-05T02:50:39.808Z,19.93
2017-11-05T02:53:07.459Z,20.37
2017-11-05T02:55:35.107Z,20.87
2017-11-05T02:58:02.794Z,20.00
2017-11-05T03:00:30.441Z,20.27
2017-11-05T03:02:58.127Z,23.77
2017-11-05T03:05:25.799Z,20.77
2017-11-05T03:07:53.487Z,20.37
2017-11-05T03:10:21.129Z,19.57
2017-11-05T03:12:48.745Z,19.70
2017-11-05T03:15:16.409Z,19.60
2017-11-05T03:17:44.099Z,20.43
2017-11-05T03:20:11.745Z,20.47
2017-11-05T03:22:39.442Z,20.43
2017-11-05T03:25:07.118Z,21.63
2017-11-05T03:27:34.759Z,21.20
2017-11-05T03:30:02.413Z,20.07
2017-11-05T03:32:30.122Z,22.20
2017-11-05T03:34:57.823Z,22.30
2017-11-05T03:37:25.506Z,23.00
2017-11-05T03:39:53.159Z,23.80
2017-11-05T03:42:20.814Z,23.57
2017-11-05T03:44:48.462Z,24.13
2017-11-05T03:47:16.132Z,23.70
2017-11-05T03:49:43.817Z,23.13
2017-11-05T03:52:11.498Z,21.30
2017-11-05T03:54:39.221Z,22.13
2017-11-05T03:57:06.907Z,21.07
2017-11-05T03:59:34.622Z,21.13
2017-11-05T04:02:02.286Z,20.67
2017-11-05T04:04:29.999Z,19.17
2017-11-05T04:06:57.686Z,20.93
2017-11-05T04:09:25.379Z,20.37
2017-11-05T04:11:53.029Z,20.90
2017-11-05T04:14:20.725Z,22.93
2017-11-05T04:16:48.381Z,21.60
2017-11-05T04:19:16.065Z,22.90
2017-11-05T04:21:43.719Z,22.10
2017-11-05T04:24:11.412Z,22.77
2017-11-05T04:26:39.056Z,22.00
2017-11-05T04:29:06.739Z,24.97
2017-11-05T04:31:34.385Z,22.60
2017-11-05T04:34:02.066Z,24.23
2017-11-05T04:36:29.800Z,22.03
2017-11-05T04:38:57.501Z,22.50
2017-11-05T04:41:25.188Z,21.03
2017-11-05T04:43:52.871Z,20.77
2017-11-05T04:46:20.575Z,21.33
2017-11-05T04:48:48.222Z,19.30
2017-11-05T04:51:15.906Z,20.70
2017-11-05T04:53:43.551Z,19.57
2017-11-05T04:56:11.277Z,21.17
2017-11-05T04:58:38.955Z,20.87
2017-11-05T05:01:06.639Z,20.83
2017-11-05T05:03:34.295Z,20.90
2017-11-05T05:06:01.985Z,18.83
2017-11-05T05:08:29.637Z,20.50
2017-11-05T05:10:57.333Z,20.23
2017-11-05T05:13:24.983Z,19.63
2017-11-05T05:15:52.691Z,19.00
2017-11-05T05:18:20.350Z,20.20
2017-11-05T05:20:48.035Z,20.50
2017-11-05T05:23:15.675Z,20.23
2017-11-05T05:25:43.375Z,20.00
2017-11-05T05:28:10.957Z,20.97
2017-11-05T05:30:38.647Z,20.70
2017-11-05T05:33:06.306Z,20.97
2017-11-05T05:35:34.021Z,20.80
2017-11-05T05:38:01.667Z,21.07
2017-11-05T05:40:29.379Z,21.40
2017-11-05T05:42:57.046Z,21.07
2017-11-05T05:45:24.757Z,21.60
2017-11-05T05:47:52.472Z,20.40
2017-11-05T05:50:20.152Z,20.00
2017-11-05T05:52:47.866Z,21.37
2017-11-05T05:55:15.530Z,19.20
2017-11-05T05:57:43.221Z,19.40
2017-11-05T06:00:10.884Z,19.00
2017-11-05T06:02:38.597Z,19.87
2017-11-05T06:05:06.257Z,19.20
2017-11-05T06:07:33.942Z,19.20
2017-11-05T06:10:01.598Z,19.50
2017-11-05T06:12:29.224Z,21.27
2017-11-05T06:14:56.847Z,19.30
2017-11-05T06:17:24.554Z,19.97
2017-11-05T06:19:52.213Z,19.70
2017-11-05T06:22:19.919Z,19.77
2017-11-05T06:24:47.590Z,20.47
2017-11-05T06:27:15.322Z,19.30
2017-11-05T06:29:42.974Z,19.03
2017-11-05T06:32:10.649Z,19.77
2017-11-05T06:34:38.342Z,19.80
2017-11-05T06:37:06.032Z,19.37
2017-11-05T06:39:33.750Z,20.13
2017-11-05T06:42:01.358Z,19.47
2017-11-05T06:44:29.057Z,19.53
2017-11-05T06:46:56.646Z,19.67
2017-11-05T06:49:24.334Z,18.97
2017-11-05T06:51:51.996Z,19.20
2017-11-05T06:54:19.716Z,20.27
2017-11-05T06:56:47.376Z,18.87
2017-11-05T06:59:15.094Z,19.17
2017-11-05T07:01:42.787Z,18.03
2017-11-05T07:04:10.466Z,20.57
2017-11-05T07:06:38.135Z,19.80
2017-11-05T07:09:05.830Z,20.50
2017-11-05T07:11:33.440Z,18.47
2017-11-05T07:14:01.134Z,19.10
2017-11-05T07:16:28.820Z,20.27
2017-11-05T07:18:56.522Z,20.20
2017-11-05T07:21:24.127Z,20.47
2017-11-05T07:23:51.842Z,20.03
2017-11-05T07:26:19.436Z,18.17
2017-11-05T07:28:47.106Z,20.40
2017-11-05T07:31:14.839Z,18.90
2017-11-05T07:33:42.518Z,17.83
2017-11-05T07:36:10.252Z,20.63
2017-11-05T07:38:37.938Z,19.70
2017-11-05T07:41:05.647Z,19.63
2017-11-05T07:43:33.322Z,20.43
2017-11-05T07:46:01.081Z,23.97
2017-11-05T07:48:28.737Z,21.10
2017-11-05T07:50:56.426Z,22.10
2017-11-05T07:53:24.026Z,20.47
2017-11-05T07:55:51.724Z,21.10
2017-11-05T07:58:19.386Z,20.80
2017-11-05T08:00:47.101Z,21.10
2017-11-05T08:03:14.752Z,22.00
2017-11-05T08:05:42.452Z,23.00
2017-11-05T08:08:10.119Z,24.40
2017-11-05T08:10:37.786Z,25.33
2017-11-05T08:13:05.495Z,23.17
2017-11-05T08:15:33.165Z,24.90
2017-11-05T08:18:00.858Z,26.20
2017-11-05T08:20:28.518Z,24.20
2017-11-05T08:22:56.226Z,23.60
2017-11-05T08:25:23.905Z,25.77
2017-11-05T08:27:51.597Z,26.60
2017-11-05T08:30:19.265Z,28.00
2017-11-05T08:32:46.981Z,27.13
2017-11-05T08:35:14.711Z,23.77
2017-11-05T08:37:42.404Z,27.33
2017-11-05T08:40:10.070Z,26.40
2017-11-05T08:42:37.679Z,23.27
2017-11-05T08:45:05.470Z,23.50
2017-11-05T08:47:33.085Z,23.17
2017-11-05T08:50:00.782Z,22.10
2017-11-05T08:52:28.452Z,23.27
2017-11-05T08:54:56.179Z,21.47
2017-11-05T08:57:23.778Z,20.07
2017-11-05T08:59:51.490Z,19.93
2017-11-05T09:02:19.187Z,22.17
2017-11-05T09:04:46.886Z,23.40
2017-11-05T09:07:14.544Z,23.10
2017-11-05T09:09:42.206Z,22.43
2017-11-05T09:12:09.931Z,21.60
2017-11-05T09:14:37.593Z,20.10
2017-11-05T09:17:05.300Z,18.77
2017-11-05T09:19:32.968Z,16.43
2017-11-05T09:22:00.664Z,14.60
2017-11-05T09:24:28.327Z,14.00
2017-11-05T09:26:56.019Z,14.70
2017-11-05T09:29:23.610Z,13.17
2017-11-05T09:31:51.308Z,11.60
2017-11-05T09:34:18.960Z,10.07
2017-11-05T09:36:46.701Z,11.80
2017-11-05T09:39:14.342Z,14.30
2017-11-05T09:41:42.024Z,12.00
2017-11-05T09:44:09.715Z,11.97
2017-11-05T09:46:37.371Z,9.80
2017-11-05T09:49:05.001Z,8.50
2017-11-05T09:51:32.659Z,8.57
2017-11-05T09:54:00.293Z,7.23
2017-11-05T09:56:27.963Z,8.57
2017-11-05T09:58:55.642Z,7.70
2017-11-05T10:01:23.310Z,9.30
2017-11-05T10:03:51.028Z,7.60
2017-11-05T10:06:18.800Z,7.60
2017-11-05T10:08:46.446Z,8.67
2017-11-05T10:11:14.146Z,6.93
2017-11-05T10:13:41.807Z,6.73
2017-11-05T10:16:09.509Z,7.10
2017-11-05T10:18:37.174Z,6.23
2017-11-05T10:21:04.869Z,5.80
2017-11-05T10:23:32.523Z,5.30
2017-11-05T10:26:00.202Z,8.70
2017-11-05T10:28:27.864Z,5.17
2017-11-05T10:30:55.574Z,3.30
2017-11-05T10:33:23.248Z,2.47
2017-11-05T10:35:53.926Z,2.47
2017-11-05T10:38:21.573Z,4.47
2017-11-05T10:40:49.275Z,3.90
2017-11-05T10:43:16.936Z,3.43
2017-11-05T10:45:44.593Z,3.80
2017-11-05T10:48:12.269Z,3.33
2017-11-05T10:50:39.908Z,4.10
2017-11-05T10:53:07.575Z,3.97
2017-11-05T10:55:35.224Z,3.50
2017-11-05T10:58:02.919Z,3.30
2017-11-05T11:00:30.562Z,3.83
2017-11-05T11:02:58.238Z,3.43
2017-11-05T11:05:25.838Z,3.37
2017-11-05T11:07:53.511Z,4.73
2017-11-05T11:10:21.146Z,3.53
2017-11-05T11:12:48.855Z,3.50
2017-11-05T11:15:16.496Z,3.50
2017-11-05T11:17:44.160Z,4.57
2017-11-05T11:20:11.876Z,4.80
2017-11-05T11:22:39.517Z,2.50
2017-11-05T11:25:07.211Z,2.90
2017-11-05T11:27:34.857Z,2.50
2017-11-05T11:30:02.568Z,2.67
2017-11-05T11:32:30.239Z,2.90
2017-11-05T11:34:57.950Z,2.70
2017-11-05T11:37:25.607Z,3.50
2017-11-05T11:39:53.290Z,2.47
2017-11-05T11:42:20.929Z,2.90
2017-11-05T11:44:48.629Z,2.43
2017-11-05T11:47:16.259Z,2.17
2017-11-05T11:49:43.923Z,2.33
2017-11-05T11:52:11.599Z,2.33
2017-11-05T11:54:39.256Z,2.30
2017-11-05T11:57:06.939Z,2.27
2017-11-05T11:59:34.583Z,1.93
2017-11-05T12:02:02.287Z,2.03
2017-11-05T12:04:29.968Z,2.23
2017-11-05T12:06:57.654Z,2.50
2017-11-05T12:09:25.300Z,3.23
2017-11-05T12:11:53.059Z,4.37
2017-11-05T12:14:20.724Z,3.97
2017-11-05T12:16:48.438Z,4.80
2017-11-05T12:19:16.084Z,3.47
2017-11-05T12:21:43.722Z,3.27
2017-11-05T12:24:11.417Z,3.33
2017-11-05T12:26:39.015Z,4.07
2017-11-05T12:29:06.703Z,5.90
2017-11-05T12:31:34.366Z,7.67
2017-11-05T12:34:02.072Z,5.43
2017-11-05T12:36:29.785Z,7.83
2017-11-05T12:38:57.463Z,4.90
2017-11-05T12:41:25.113Z,6.20
2017-11-05T12:43:52.819Z,8.17
2017-11-05T12:46:20.485Z,6.50
2017-11-05T12:48:48.197Z,4.77
2017-11-05T12:51:15.853Z,5.27
2017-11-05T12:53:43.518Z,8.00
2017-11-05T12:56:11.192Z,4.10
2017-11-05T12:58:38.840Z,6.53
2017-11-05T13:01:06.526Z,6.80
2017-11-05T13:03:34.178Z,5.50
2017-11-05T13:06:01.883Z,6.03
2017-11-05T13:08:29.539Z,6.47
2017-11-05T13:10:57.223Z,6.30
2017-11-05T13:13:24.892Z,5.80
2017-11-05T13:15:52.595Z,7.07
2017-11-05T13:18:20.247Z,6.40
2017-11-05T13:20:47.946Z,6.30
2017-11-05T13:23:15.619Z,6.47
2017-11-05T13:25:43.331Z,5.83
2017-11-05T13:28:10.998Z,4.70
2017-11-05T13:30:38.717Z,4.87
2017-11-05T13:33:06.363Z,5.10
2017-11-05T13:35:34.087Z,5.30
2017-11-05T13:38:01.767Z,5.00
2017-11-05T13:40:29.421Z,5.50
2017-11-05T13:42:57.101Z,7.03
2017-11-05T13:45:24.773Z,4.80
2017-11-05T13:47:52.466Z,6.67
2017-11-05T13:50:20.125Z,6.60
2017-11-05T13:52:47.793Z,8.83
2017-11-05T13:55:15.457Z,6.77
2017-11-05T13:57:43.162Z,7.67
2017-11-05T14:00:10.820Z,6.90
2017-11-05T14:02:38.524Z,6.93
2017-11-05T14:05:06.106Z,6.00
2017-11-05T14:07:33.817Z,6.10
2017-11-05T14:10:01.942Z,6.37
2017-11-05T14:12:29.588Z,5.90
2017-11-05T14:14:57.287Z,6.30
2017-11-05T14:17:24.959Z,6.07
2017-11-05T14:19:52.664Z,5.57
2017-11-05T14:22:20.319Z,5.50
2017-11-05T14:24:48.015Z,5.73
2017-11-05T14:27:15.657Z,5.90
2017-11-05T14:29:43.354Z,5.40
2017-11-05T14:32:11.015Z,5.60
2017-11-05T14:34:38.713Z,5.17
2017-11-05T14:37:06.401Z,5.40
2017-11-05T14:39:34.083Z,5.03
2017-11-05T14:42:01.682Z,5.40
2017-11-05T14:44:29.415Z,5.63
2017-11-05T14:46:57.112Z,5.07
2017-11-05T14:49:24.838Z,5.40
2017-11-05T14:51:52.532Z,5.80
2017-11-05T14:54:20.213Z,6.13
2017-11-05T14:56:47.934Z,6.20
2017-11-05T14:59:15.587Z,6.30
2017-11-05T15:01:43.283Z,5.50
2017-11-05T15:04:10.949Z,5.93
2017-11-05T15:06:38.793Z,6.83
2017-11-05T15:09:06.450Z,6.20
2017-11-05T15:11:34.151Z,5.60
2017-11-05T15:14:01.818Z,5.60
2017-11-05T15:16:29.509Z,5.10
2017-11-05T15:18:57.180Z,6.00
2017-11-05T15:21:24.873Z,5.70
2017-11-05T15:23:52.527Z,5.80
2017-11-05T15:26:20.228Z,5.67
2017-11-05T15:28:47.890Z,5.93
2017-11-05T15:31:15.573Z,6.10
2017-11-05T15:33:43.220Z,6.63
2017-11-05T15:36:10.975Z,6.93
2017-11-05T15:38:38.662Z,8.70
2017-11-05T15:41:06.380Z,7.30
2017-11-05T15:43:34.069Z,8.60
2017-11-05T15:46:01.719Z,9.40
2017-11-05T15:48:29.462Z,8.70
2017-11-05T15:50:57.173Z,9.10
2017-11-05T15:53:24.869Z,9.80
2017-11-05T15:55:52.630Z,10.20
2017-11-05T15:58:20.347Z,10.53
2017-11-05T16:00:48.050Z,10.10
2017-11-05T16:03:15.811Z,10.27
2017-11-05T16:05:43.494Z,9.87
2017-11-05T16:08:11.185Z,8.97
2017-11-05T16:10:38.829Z,10.20
2017-11-05T16:13:06.514Z,10.63
2017-11-05T16:15:34.171Z,10.30
2017-11-05T16:18:01.880Z,10.50
2017-11-05T16:20:29.528Z,9.37
2017-11-05T16:22:57.234Z,9.67
2017-11-05T16:25:24.943Z,9.73
2017-11-05T16:27:52.642Z,9.03
2017-11-05T16:30:20.318Z,8.40
2017-11-05T16:32:47.972Z,8.87
2017-11-05T16:35:15.698Z,8.23
2017-11-05T16:37:43.365Z,8.20
2017-11-05T16:40:11.059Z,6.87
2017-11-05T16:42:38.713Z,6.87
2017-11-05T16:45:06.393Z,7.17
2017-11-05T16:47:34.078Z,6.30
2017-11-05T16:50:01.758Z,6.67
2017-11-05T16:52:29.410Z,7.27
2017-11-05T16:54:57.087Z,7.03
2017-11-05T16:57:24.734Z,6.80
2017-11-05T16:59:52.420Z,6.37
2017-11-05T17:02:20.059Z,6.70
2017-11-05T17:04:47.714Z,6.30
2017-11-05T17:07:15.435Z,6.10
2017-11-05T17:09:43.080Z,6.00
2017-11-05T17:12:10.769Z,5.77
2017-11-05T17:14:38.502Z,7.03
2017-11-05T17:17:06.211Z,6.40
2017-11-05T17:19:33.853Z,5.80
2017-11-05T17:22:01.592Z,5.03
2017-11-05T17:24:29.248Z,6.10
2017-11-05T17:26:56.960Z,5.10
2017-11-05T17:29:24.654Z,5.37
2017-11-05T17:31:52.311Z,5.83
2017-11-05T17:34:20.004Z,5.60
2017-11-05T17:36:47.719Z,5.30
2017-11-05T17:39:15.426Z,6.33
2017-11-05T17:41:43.069Z,4.90
2017-11-05T17:44:10.767Z,4.70
2017-11-05T17:46:38.432Z,4.77
2017-11-05T17:49:06.116Z,4.70
2017-11-05T17:51:33.773Z,4.87
2017-11-05T17:54:01.481Z,4.30
2017-11-05T17:56:30.135Z,4.77
2017-11-05T17:58:57.846Z,4.47
2017-11-05T18:01:25.497Z,3.37
2017-11-05T18:03:53.191Z,5.00
2017-11-05T18:06:20.840Z,4.67
2017-11-05T18:08:48.535Z,5.10
2017-11-05T18:11:16.191Z,5.30
2017-11-05T18:13:43.842Z,4.40
2017-11-05T18:16:11.522Z,4.77
2017-11-05T18:18:39.176Z,4.77
2017-11-05T18:21:06.864Z,4.80
2017-11-05T18:23:34.523Z,3.50
2017-11-05T18:26:02.197Z,4.67
2017-11-05T18:28:29.845Z,4.00
2017-11-05T18:30:57.527Z,4.00
2017-11-05T18:33:25.187Z,5.63
2017-11-05T18:35:52.921Z,5.00
2017-11-05T18:38:20.575Z,5.23
2017-11-05T18:40:48.269Z,4.90
2017-11-05T18:43:15.915Z,4.50
2017-11-05T18:45:43.650Z,5.30
2017-11-05T18:48:11.301Z,5.13
2017-11-05T18:50:38.988Z,4.93
2017-11-05T18:53:06.673Z,4.73
2017-11-05T18:55:34.364Z,4.53
2017-11-05T18:58:02.049Z,4.93
2017-11-05T19:00:29.725Z,5.50
2017-11-05T19:02:57.423Z,4.63
2017-11-05T19:05:25.101Z,5.13
2017-11-05T19:07:52.817Z,4.90
2017-11-05T19:10:20.477Z,4.73
2017-11-05T19:12:48.183Z,5.03
2017-11-05T19:15:15.861Z,4.80
2017-11-05T19:17:43.585Z,5.00
2017-11-05T19:20:11.255Z,4.73
2017-11-05T19:22:38.927Z,5.10
2017-11-05T19:25:06.632Z,6.10
2017-11-05T19:27:34.300Z,5.57
2017-11-05T19:30:01.988Z,5.67
2017-11-05T19:32:29.639Z,5.30
2017-11-05T19:34:57.336Z,5.40
2017-11-05T19:37:25.045Z,5.60
2017-11-05T19:39:52.735Z,5.47
2017-11-05T19:42:20.417Z,5.53
2017-11-05T19:44:48.101Z,5.80
2017-11-05T19:47:15.767Z,6.43
2017-11-05T19:49:44.365Z,6.20
2017-11-05T19:52:12.073Z,5.87
2017-11-05T19:54:39.802Z,6.00
2017-11-05T19:57:08.534Z,5.60
2017-11-05T19:59:36.214Z,5.93
2017-11-05T20:02:03.857Z,5.10
2017-11-05T20:04:31.555Z,5.20
2017-11-05T20:06:59.197Z,5.00
2017-11-05T20:09:26.906Z,4.37
2017-11-05T20:11:54.571Z,4.70
2017-11-05T20:14:22.233Z,4.43
2017-11-05T20:16:49.933Z,4.33
2017-11-05T20:19:17.585Z,4.90
2017-11-05T20:21:45.196Z,4.83
2017-11-05T20:24:12.862Z,5.40
2017-11-05T20:26:40.568Z,5.20
2017-11-05T20:29:08.206Z,6.27
2017-11-05T20:31:35.880Z,5.77
2017-11-05T20:34:03.542Z,5.27
2017-11-05T20:36:31.271Z,6.37
2017-11-05T20:38:58.906Z,5.40
2017-11-05T20:41:26.605Z,4.97
2017-11-05T20:43:54.263Z,5.00
2017-11-05T20:46:21.935Z,5.67
2017-11-05T20:48:49.618Z,5.97
2017-11-05T20:51:17.253Z,5.33
2017-11-05T20:53:44.953Z,5.30
2017-11-05T20:56:12.614Z,5.17
2017-11-05T20:58:40.332Z,5.80
2017-11-05T21:01:07.991Z,5.60
2017-11-05T21:03:35.683Z,6.20
2017-11-05T21:06:03.330Z,6.40
2017-11-05T21:08:31.055Z,6.30
2017-11-05T21:10:58.696Z,5.60
2017-11-05T21:13:26.395Z,7.30
2017-11-05T21:15:54.045Z,7.13
2017-11-05T21:18:21.745Z,7.50
2017-11-05T21:20:49.406Z,7.10
2017-11-05T21:23:17.124Z,6.90
2017-11-05T21:25:44.785Z,6.47
2017-11-05T21:28:12.496Z,8.30
2017-11-05T21:30:40.170Z,6.50
2017-11-05T21:33:07.811Z,6.50
2017-11-05T21:35:35.546Z,7.03
2017-11-05T21:38:03.200Z,6.53
2017-11-05T21:40:30.919Z,6.30
2017-11-05T21:42:58.574Z,6.33
2017-11-05T21:45:26.272Z,5.70
2017-11-05T21:47:53.936Z,5.43
2017-11-05T21:50:21.625Z,6.00
2017-11-05T21:52:49.301Z,5.90
2017-11-05T21:55:17.007Z,6.03
2017-11-05T21:57:45.913Z,5.90
2017-11-05T22:00:13.637Z,5.63
2017-11-05T22:02:41.272Z,5.80
2017-11-05T22:05:08.970Z,6.70
2017-11-05T22:07:36.608Z,6.07
2017-11-05T22:10:04.327Z,5.93
2017-11-05T22:12:31.975Z,6.00
2017-11-05T22:14:59.660Z,5.77
2017-11-05T22:17:27.318Z,5.67
2017-11-05T22:19:55.007Z,5.03
2017-11-05T22:22:22.656Z,5.10
2017-11-05T22:24:50.371Z,5.60
2017-11-05T22:27:18.018Z,5.23
2017-11-05T22:29:45.680Z,5.60
2017-11-05T22:32:13.381Z,5.43
2017-11-05T22:34:41.039Z,5.60
2017-11-05T22:37:08.791Z,5.70
2017-11-05T22:39:36.447Z,6.50
2017-11-05T22:42:04.147Z,5.30
2017-11-05T22:44:31.798Z,6.30
2017-11-05T22:46:59.486Z,6.87
2017-11-05T22:49:27.140Z,6.30
2017-11-05T22:51:54.837Z,6.40
2017-11-05T22:54:22.483Z,6.00
2017-11-05T22:56:50.180Z,6.20
2017-11-05T22:59:17.838Z,6.57
2017-11-05T23:01:45.536Z,6.67
2017-11-05T23:04:13.206Z,5.33
2017-11-05T23:06:40.886Z,6.10
2017-11-05T23:09:08.531Z,7.10
2017-11-05T23:11:36.202Z,6.40
2017-11-05T23:14:03.839Z,6.60
2017-11-05T23:16:31.524Z,6.10
2017-11-05T23:18:59.176Z,6.60
2017-11-05T23:21:26.881Z,6.00
2017-11-05T23:23:54.521Z,5.33
2017-11-05T23:26:22.172Z,5.53
2017-11-05T23:28:49.858Z,5.80
2017-11-05T23:31:17.498Z,5.27
2017-11-05T23:33:45.204Z,6.00
2017-11-05T23:36:12.900Z,6.03
2017-11-05T23:38:40.604Z,6.40
2017-11-05T23:41:08.268Z,5.67
2017-11-05T23:43:35.963Z,5.57
2017-11-05T23:46:03.611Z,5.47
2017-11-05T23:48:31.293Z,5.50
2017-11-05T23:50:58.937Z,5.90
2017-11-05T23:53:26.619Z,5.47
2017-11-05T23:55:54.271Z,6.03
2017-11-05T23:58:23.139Z,5.80
